sensor_id;sensor_type;location;lat;lon;timestamp;pressure;altitude;pressure_sealevel;temperature;humidity
63535;BME280;55128;50.230;18.944;2022-10-30T00:02:26;98978.94;;;11.88;80.96
63535;BME280;55128;50.230;18.944;2022-10-30T00:07:26;98987.81;;;11.68;81.34
63535;BME280;55128;50.230;18.944;2022-10-30T00:12:27;98975.66;;;11.62;81.40
63535;BME280;55128;50.230;18.944;2022-10-30T00:17:27;98972.13;;;11.62;81.60
63535;BME280;55128;50.230;18.944;2022-10-30T00:22:28;98971.31;;;11.60;82.20
63535;BME280;55128;50.230;18.944;2022-10-30T00:27:29;98976.44;;;11.64;81.18
63535;BME280;55128;50.230;18.944;2022-10-30T00:32:29;98988.00;;;11.63;79.97
63535;BME280;55128;50.230;18.944;2022-10-30T00:37:30;98986.09;;;11.46;80.40
63535;BME280;55128;50.230;18.944;2022-10-30T00:42:31;98986.28;;;11.42;80.64
63535;BME280;55128;50.230;18.944;2022-10-30T00:47:35;98979.31;;;11.39;79.98
63535;BME280;55128;50.230;18.944;2022-10-30T00:52:41;98988.34;;;11.35;80.03
63535;BME280;55128;50.230;18.944;2022-10-30T00:57:44;98975.25;;;11.31;80.14
63535;BME280;55128;50.230;18.944;2022-10-30T01:02:46;98968.59;;;11.20;80.18
63535;BME280;55128;50.230;18.944;2022-10-30T01:07:47;98959.09;;;11.15;81.02
63535;BME280;55128;50.230;18.944;2022-10-30T01:12:48;98958.53;;;11.08;81.82
63535;BME280;55128;50.230;18.944;2022-10-30T01:18:39;98962.34;;;11.01;82.39
63535;BME280;55128;50.230;18.944;2022-10-30T01:34:21;98973.75;;;10.82;80.74
63535;BME280;55128;50.230;18.944;2022-10-30T01:39:27;98966.72;;;10.81;80.88
63535;BME280;55128;50.230;18.944;2022-10-30T01:44:32;98973.69;;;10.84;81.16
63535;BME280;55128;50.230;18.944;2022-10-30T01:55:03;98975.59;;;11.02;81.43
63535;BME280;55128;50.230;18.944;2022-10-30T02:00:12;98976.56;;;11.20;80.94
63535;BME280;55128;50.230;18.944;2022-10-30T02:05:39;98982.91;;;11.18;81.24
63535;BME280;55128;50.230;18.944;2022-10-30T02:10:42;98972.88;;;11.24;80.70
63535;BME280;55128;50.230;18.944;2022-10-30T02:15:44;98972.88;;;11.24;81.29
63535;BME280;55128;50.230;18.944;2022-10-30T02:20:46;98962.91;;;11.29;81.57
63535;BME280;55128;50.230;18.944;2022-10-30T02:25:47;98960.72;;;11.39;81.48
63535;BME280;55128;50.230;18.944;2022-10-30T02:30:48;98964.22;;;11.40;81.43
63535;BME280;55128;50.230;18.944;2022-10-30T02:35:49;98944.56;;;11.44;80.63
63535;BME280;55128;50.230;18.944;2022-10-30T02:40:50;98943.63;;;11.45;81.44
63535;BME280;55128;50.230;18.944;2022-10-30T02:45:51;98935.22;;;11.54;80.62
63535;BME280;55128;50.230;18.944;2022-10-30T02:50:51;98941.19;;;11.59;80.48
63535;BME280;55128;50.230;18.944;2022-10-30T02:55:52;98933.38;;;11.56;80.52
63535;BME280;55128;50.230;18.944;2022-10-30T03:00:52;98942.41;;;11.52;80.83
63535;BME280;55128;50.230;18.944;2022-10-30T03:05:53;98953.38;;;11.44;80.67
63535;BME280;55128;50.230;18.944;2022-10-30T03:11:06;98953.44;;;11.43;80.28
63535;BME280;55128;50.230;18.944;2022-10-30T03:16:09;98955.31;;;11.41;79.51
63535;BME280;55128;50.230;18.944;2022-10-30T03:21:13;98970.75;;;11.33;80.10
63535;BME280;55128;50.230;18.944;2022-10-30T03:26:14;98974.06;;;11.38;79.63
63535;BME280;55128;50.230;18.944;2022-10-30T03:31:16;98979.72;;;11.30;79.88
63535;BME280;55128;50.230;18.944;2022-10-30T03:36:18;98979.13;;;11.23;79.60
63535;BME280;55128;50.230;18.944;2022-10-30T03:41:19;98979.56;;;11.33;79.89
63535;BME280;55128;50.230;18.944;2022-10-30T03:46:20;98975.66;;;11.21;80.66
63535;BME280;55128;50.230;18.944;2022-10-30T03:51:20;98959.91;;;11.37;81.01
63535;BME280;55128;50.230;18.944;2022-10-30T03:56:21;98956.94;;;11.45;82.04
63535;BME280;55128;50.230;18.944;2022-10-30T04:01:21;98952.78;;;11.58;82.35
63535;BME280;55128;50.230;18.944;2022-10-30T04:06:22;98951.25;;;11.73;82.86
63535;BME280;55128;50.230;18.944;2022-10-30T04:11:22;98945.25;;;11.68;82.14
63535;BME280;55128;50.230;18.944;2022-10-30T04:16:23;98953.66;;;11.78;82.00
63535;BME280;55128;50.230;18.944;2022-10-30T04:21:23;98944.47;;;11.66;81.03
63535;BME280;55128;50.230;18.944;2022-10-30T04:26:24;98940.91;;;11.65;81.41
63535;BME280;55128;50.230;18.944;2022-10-30T04:31:25;98954.16;;;11.67;81.64
63535;BME280;55128;50.230;18.944;2022-10-30T04:36:25;98966.31;;;11.73;81.92
63535;BME280;55128;50.230;18.944;2022-10-30T04:41:35;98967.75;;;11.80;80.68
63535;BME280;55128;50.230;18.944;2022-10-30T04:46:35;98962.56;;;11.77;80.67
63535;BME280;55128;50.230;18.944;2022-10-30T04:51:36;98970.22;;;11.84;81.12
63535;BME280;55128;50.230;18.944;2022-10-30T04:56:36;98969.91;;;11.92;80.19
63535;BME280;55128;50.230;18.944;2022-10-30T05:01:37;98961.38;;;11.84;80.54
63535;BME280;55128;50.230;18.944;2022-10-30T05:06:37;98955.00;;;11.88;80.75
63535;BME280;55128;50.230;18.944;2022-10-30T05:11:38;98960.00;;;11.96;80.83
63535;BME280;55128;50.230;18.944;2022-10-30T05:16:39;98962.91;;;12.09;81.26
63535;BME280;55128;50.230;18.944;2022-10-30T05:21:39;98958.97;;;12.17;81.32
63535;BME280;55128;50.230;18.944;2022-10-30T05:26:40;98961.94;;;12.30;81.70
63535;BME280;55128;50.230;18.944;2022-10-30T05:31:40;98957.88;;;12.40;81.50
63535;BME280;55128;50.230;18.944;2022-10-30T05:36:41;98945.66;;;12.17;82.27
63535;BME280;55128;50.230;18.944;2022-10-30T05:41:41;98954.25;;;12.24;82.77
63535;BME280;55128;50.230;18.944;2022-10-30T05:46:42;98957.97;;;12.39;82.02
63535;BME280;55128;50.230;18.944;2022-10-30T05:51:43;98963.09;;;12.61;81.33
63535;BME280;55128;50.230;18.944;2022-10-30T05:56:43;98967.53;;;12.43;82.54
63535;BME280;55128;50.230;18.944;2022-10-30T06:01:44;98971.47;;;12.53;83.13
63535;BME280;55128;50.230;18.944;2022-10-30T06:06:44;98971.66;;;12.68;82.39
63535;BME280;55128;50.230;18.944;2022-10-30T06:11:45;98972.84;;;12.79;81.68
63535;BME280;55128;50.230;18.944;2022-10-30T06:16:46;98976.63;;;12.93;81.74
63535;BME280;55128;50.230;18.944;2022-10-30T06:21:47;98978.06;;;13.00;81.64
63535;BME280;55128;50.230;18.944;2022-10-30T06:26:47;98977.66;;;12.90;82.65
63535;BME280;55128;50.230;18.944;2022-10-30T06:31:50;98979.28;;;12.93;82.74
63535;BME280;55128;50.230;18.944;2022-10-30T06:36:51;98978.69;;;13.22;82.16
63535;BME280;55128;50.230;18.944;2022-10-30T06:41:51;98983.50;;;13.33;81.44
63535;BME280;55128;50.230;18.944;2022-10-30T06:46:52;98989.63;;;13.35;81.39
63535;BME280;55128;50.230;18.944;2022-10-30T06:51:53;98987.31;;;13.28;82.22
63535;BME280;55128;50.230;18.944;2022-10-30T06:56:53;98990.63;;;13.50;81.25
63535;BME280;55128;50.230;18.944;2022-10-30T07:01:54;98995.66;;;13.56;81.25
63535;BME280;55128;50.230;18.944;2022-10-30T07:06:55;98990.38;;;13.55;81.24
63535;BME280;55128;50.230;18.944;2022-10-30T07:11:56;98998.28;;;13.74;80.64
63535;BME280;55128;50.230;18.944;2022-10-30T07:16:56;98994.97;;;13.86;80.26
63535;BME280;55128;50.230;18.944;2022-10-30T07:21:57;98988.81;;;14.02;79.71
63535;BME280;55128;50.230;18.944;2022-10-30T07:26:57;98989.44;;;14.23;79.26
63535;BME280;55128;50.230;18.944;2022-10-30T07:31:58;98999.81;;;14.29;79.82
63535;BME280;55128;50.230;18.944;2022-10-30T07:36:58;98992.84;;;14.74;77.75
63535;BME280;55128;50.230;18.944;2022-10-30T07:41:59;98991.06;;;15.05;76.33
63535;BME280;55128;50.230;18.944;2022-10-30T07:47:00;98992.75;;;15.66;75.47
63535;BME280;55128;50.230;18.944;2022-10-30T07:52:00;99002.00;;;16.20;74.74
63535;BME280;55128;50.230;18.944;2022-10-30T07:57:01;98996.72;;;17.28;72.18
63535;BME280;55128;50.230;18.944;2022-10-30T08:02:02;98979.38;;;18.24;67.64
63535;BME280;55128;50.230;18.944;2022-10-30T08:07:03;98982.59;;;18.42;64.48
63535;BME280;55128;50.230;18.944;2022-10-30T08:12:03;98984.66;;;18.99;64.74
63535;BME280;55128;50.230;18.944;2022-10-30T08:17:04;98988.38;;;20.82;57.41
63535;BME280;55128;50.230;18.944;2022-10-30T08:22:08;98995.16;;;22.66;53.11
63535;BME280;55128;50.230;18.944;2022-10-30T08:27:09;98995.94;;;25.15;44.82
63535;BME280;55128;50.230;18.944;2022-10-30T08:32:10;98992.97;;;26.67;41.73
63535;BME280;55128;50.230;18.944;2022-10-30T08:37:10;98993.56;;;29.37;39.78
63535;BME280;55128;50.230;18.944;2022-10-30T08:42:11;98984.34;;;29.38;35.20
63535;BME280;55128;50.230;18.944;2022-10-30T08:47:12;98994.66;;;31.45;32.06
63535;BME280;55128;50.230;18.944;2022-10-30T08:52:14;98987.84;;;32.05;30.89
63535;BME280;55128;50.230;18.944;2022-10-30T08:57:16;98996.28;;;33.35;28.27
63535;BME280;55128;50.230;18.944;2022-10-30T09:02:16;98989.09;;;31.81;30.47
63535;BME280;55128;50.230;18.944;2022-10-30T09:07:18;98988.41;;;32.64;28.59
63535;BME280;55128;50.230;18.944;2022-10-30T09:12:19;98975.88;;;33.03;28.13
63535;BME280;55128;50.230;18.944;2022-10-30T09:17:19;98976.69;;;32.13;29.49
63535;BME280;55128;50.230;18.944;2022-10-30T09:22:20;98981.16;;;32.56;29.34
63535;BME280;55128;50.230;18.944;2022-10-30T09:27:23;98973.88;;;34.25;26.34
63535;BME280;55128;50.230;18.944;2022-10-30T09:32:24;98972.72;;;35.11;25.94
63535;BME280;55128;50.230;18.944;2022-10-30T09:37:24;98977.56;;;34.77;25.42
63535;BME280;55128;50.230;18.944;2022-10-30T09:42:41;98974.53;;;33.67;26.74
63535;BME280;55128;50.230;18.944;2022-10-30T10:09:18;98966.25;;;33.47;26.95
63535;BME280;55128;50.230;18.944;2022-10-30T10:14:28;98961.41;;;30.30;30.72
63535;BME280;55128;50.230;18.944;2022-10-30T10:19:56;98953.56;;;27.95;34.19
63535;BME280;55128;50.230;18.944;2022-10-30T10:25:10;98956.63;;;26.50;37.29
63535;BME280;55128;50.230;18.944;2022-10-30T10:30:19;98942.44;;;25.60;39.22
63535;BME280;55128;50.230;18.944;2022-10-30T10:40:59;98944.44;;;25.32;40.99
63535;BME280;55128;50.230;18.944;2022-10-30T10:46:31;98930.94;;;25.04;41.64
63535;BME280;55128;50.230;18.944;2022-10-30T10:51:35;98933.56;;;24.96;42.98
63535;BME280;55128;50.230;18.944;2022-10-30T10:56:40;98931.38;;;24.63;43.86
63535;BME280;55128;50.230;18.944;2022-10-30T11:07:23;98919.13;;;24.77;43.75
63535;BME280;55128;50.230;18.944;2022-10-30T11:12:27;98909.50;;;25.37;42.88
63535;BME280;55128;50.230;18.944;2022-10-30T11:18:02;98910.13;;;25.31;42.79
63535;BME280;55128;50.230;18.944;2022-10-30T11:29:11;98899.78;;;25.16;43.15
63535;BME280;55128;50.230;18.944;2022-10-30T11:39:25;98896.84;;;25.28;41.97
63535;BME280;55128;50.230;18.944;2022-10-30T11:45:11;98897.00;;;25.26;42.64
63535;BME280;55128;50.230;18.944;2022-10-30T11:49:58;98907.41;;;24.77;43.23
63535;BME280;55128;50.230;18.944;2022-10-30T11:55:07;98905.38;;;24.79;44.20
63535;BME280;55128;50.230;18.944;2022-10-30T12:00:19;98889.88;;;24.53;43.94
63535;BME280;55128;50.230;18.944;2022-10-30T12:10:29;98885.97;;;24.28;44.47
63535;BME280;55128;50.230;18.944;2022-10-30T12:15:33;98884.81;;;24.58;43.96
63535;BME280;55128;50.230;18.944;2022-10-30T12:20:36;98883.06;;;24.39;44.16
63535;BME280;55128;50.230;18.944;2022-10-30T12:25:37;98881.66;;;24.35;43.94
63535;BME280;55128;50.230;18.944;2022-10-30T12:31:05;98881.47;;;23.81;45.24
63535;BME280;55128;50.230;18.944;2022-10-30T12:36:13;98870.44;;;23.45;47.26
63535;BME280;55128;50.230;18.944;2022-10-30T12:41:24;98864.38;;;23.71;47.19
63535;BME280;55128;50.230;18.944;2022-10-30T12:46:50;98865.50;;;23.68;46.50
63535;BME280;55128;50.230;18.944;2022-10-30T12:52:20;98868.22;;;23.68;47.26
63535;BME280;55128;50.230;18.944;2022-10-30T12:57:31;98866.50;;;23.77;47.25
63535;BME280;55128;50.230;18.944;2022-10-30T13:02:39;98859.97;;;23.60;47.44
63535;BME280;55128;50.230;18.944;2022-10-30T13:08:08;98854.72;;;23.59;47.45
63535;BME280;55128;50.230;18.944;2022-10-30T13:13:15;98842.91;;;23.50;48.27
63535;BME280;55128;50.230;18.944;2022-10-30T13:18:20;98847.41;;;23.59;47.98
63535;BME280;55128;50.230;18.944;2022-10-30T13:23:23;98850.38;;;23.28;48.24
63535;BME280;55128;50.230;18.944;2022-10-30T13:28:32;98841.53;;;23.26;47.68
63535;BME280;55128;50.230;18.944;2022-10-30T13:33:58;98840.94;;;23.33;48.27
63535;BME280;55128;50.230;18.944;2022-10-30T13:39:35;98835.56;;;22.94;48.70
63535;BME280;55128;50.230;18.944;2022-10-30T13:50:18;98852.66;;;22.45;49.90
63535;BME280;55128;50.230;18.944;2022-10-30T13:55:30;98846.69;;;22.32;51.27
63535;BME280;55128;50.230;18.944;2022-10-30T14:06:14;98837.16;;;22.47;51.05
63535;BME280;55128;50.230;18.944;2022-10-30T14:11:18;98837.84;;;22.30;52.25
63535;BME280;55128;50.230;18.944;2022-10-30T14:16:32;98842.56;;;21.97;53.85
63535;BME280;55128;50.230;18.944;2022-10-30T14:21:40;98834.00;;;21.92;53.94
63535;BME280;55128;50.230;18.944;2022-10-30T14:26:49;98841.25;;;21.91;54.29
63535;BME280;55128;50.230;18.944;2022-10-30T14:31:50;98856.44;;;21.83;54.77
63535;BME280;55128;50.230;18.944;2022-10-30T14:36:50;98855.19;;;21.56;55.25
63535;BME280;55128;50.230;18.944;2022-10-30T14:47:36;98840.94;;;21.02;56.09
63535;BME280;55128;50.230;18.944;2022-10-30T14:57:53;98839.28;;;20.69;56.82
63535;BME280;55128;50.230;18.944;2022-10-30T15:14:01;98829.72;;;20.10;59.15
63535;BME280;55128;50.230;18.944;2022-10-30T15:19:07;98835.66;;;19.81;59.78
63535;BME280;55128;50.230;18.944;2022-10-30T15:24:19;98831.59;;;19.53;60.31
63535;BME280;55128;50.230;18.944;2022-10-30T15:29:26;98835.25;;;19.40;60.89
63535;BME280;55128;50.230;18.944;2022-10-30T15:34:30;98825.53;;;18.93;61.89
63535;BME280;55128;50.230;18.944;2022-10-30T15:39:32;98827.13;;;18.71;62.29
63535;BME280;55128;50.230;18.944;2022-10-30T15:44:35;98827.66;;;18.52;61.79
63535;BME280;55128;50.230;18.944;2022-10-30T15:49:40;98831.19;;;18.17;64.15
63535;BME280;55128;50.230;18.944;2022-10-30T15:54:43;98827.25;;;17.97;64.99
63535;BME280;55128;50.230;18.944;2022-10-30T15:59:51;98826.81;;;17.54;66.17
63535;BME280;55128;50.230;18.944;2022-10-30T16:04:53;98822.19;;;17.30;67.24
63535;BME280;55128;50.230;18.944;2022-10-30T16:09:59;98819.19;;;17.22;66.00
63535;BME280;55128;50.230;18.944;2022-10-30T16:15:21;98822.88;;;17.08;67.47
63535;BME280;55128;50.230;18.944;2022-10-30T16:20:23;98821.97;;;16.95;68.45
63535;BME280;55128;50.230;18.944;2022-10-30T16:25:26;98830.72;;;16.71;69.66
63535;BME280;55128;50.230;18.944;2022-10-30T16:30:27;98813.53;;;16.61;69.12
63535;BME280;55128;50.230;18.944;2022-10-30T16:35:31;98825.88;;;16.36;69.38
63535;BME280;55128;50.230;18.944;2022-10-30T16:40:31;98816.66;;;16.27;69.92
63535;BME280;55128;50.230;18.944;2022-10-30T16:50:37;98820.56;;;16.09;70.75
63535;BME280;55128;50.230;18.944;2022-10-30T16:55:37;98817.31;;;16.04;69.51
63535;BME280;55128;50.230;18.944;2022-10-30T17:00:40;98817.16;;;15.92;70.97
63535;BME280;55128;50.230;18.944;2022-10-30T17:05:41;98812.38;;;15.69;71.07
63535;BME280;55128;50.230;18.944;2022-10-30T17:11:01;98820.72;;;15.50;72.03
63535;BME280;55128;50.230;18.944;2022-10-30T17:21:21;98829.59;;;15.22;74.47
63535;BME280;55128;50.230;18.944;2022-10-30T17:26:25;98826.13;;;15.05;73.79
63535;BME280;55128;50.230;18.944;2022-10-30T17:36:35;98826.69;;;14.82;74.55
63535;BME280;55128;50.230;18.944;2022-10-30T17:41:36;98825.97;;;14.64;74.84
63535;BME280;55128;50.230;18.944;2022-10-30T17:46:37;98816.34;;;14.45;76.18
63535;BME280;55128;50.230;18.944;2022-10-30T17:51:38;98810.34;;;14.42;75.49
63535;BME280;55128;50.230;18.944;2022-10-30T17:56:39;98813.41;;;14.34;75.68
63535;BME280;55128;50.230;18.944;2022-10-30T18:01:39;98814.31;;;14.18;75.38
63535;BME280;55128;50.230;18.944;2022-10-30T18:06:41;98813.66;;;13.99;77.25
63535;BME280;55128;50.230;18.944;2022-10-30T18:11:41;98815.03;;;13.90;76.25
63535;BME280;55128;50.230;18.944;2022-10-30T18:16:42;98811.94;;;13.82;76.34
63535;BME280;55128;50.230;18.944;2022-10-30T18:21:43;98819.00;;;13.83;75.46
63535;BME280;55128;50.230;18.944;2022-10-30T18:26:47;98815.91;;;13.75;75.45
63535;BME280;55128;50.230;18.944;2022-10-30T18:31:48;98821.91;;;13.63;75.98
63535;BME280;55128;50.230;18.944;2022-10-30T18:36:48;98817.00;;;13.55;75.50
63535;BME280;55128;50.230;18.944;2022-10-30T18:41:49;98815.88;;;13.43;75.31
63535;BME280;55128;50.230;18.944;2022-10-30T18:46:50;98817.34;;;13.33;75.07
63535;BME280;55128;50.230;18.944;2022-10-30T18:51:50;98816.06;;;13.22;75.68
63535;BME280;55128;50.230;18.944;2022-10-30T18:56:51;98819.13;;;13.15;75.53
63535;BME280;55128;50.230;18.944;2022-10-30T19:01:51;98822.28;;;13.06;75.43
63535;BME280;55128;50.230;18.944;2022-10-30T19:06:52;98819.34;;;12.94;75.62
63535;BME280;55128;50.230;18.944;2022-10-30T19:11:52;98828.75;;;12.84;75.83
63535;BME280;55128;50.230;18.944;2022-10-30T19:16:53;98830.41;;;12.69;78.30
63535;BME280;55128;50.230;18.944;2022-10-30T19:21:53;98834.25;;;12.63;76.91
63535;BME280;55128;50.230;18.944;2022-10-30T19:26:54;98831.19;;;12.54;76.30
63535;BME280;55128;50.230;18.944;2022-10-30T19:31:55;98836.34;;;12.39;77.69
63535;BME280;55128;50.230;18.944;2022-10-30T19:36:55;98831.94;;;12.38;76.85
63535;BME280;55128;50.230;18.944;2022-10-30T19:41:56;98840.25;;;12.32;76.46
63535;BME280;55128;50.230;18.944;2022-10-30T19:46:56;98838.34;;;12.17;77.48
63535;BME280;55128;50.230;18.944;2022-10-30T19:51:57;98848.34;;;12.12;76.97
63535;BME280;55128;50.230;18.944;2022-10-30T19:56:57;98842.56;;;12.03;76.94
63535;BME280;55128;50.230;18.944;2022-10-30T20:01:58;98846.19;;;11.82;77.53
63535;BME280;55128;50.230;18.944;2022-10-30T20:06:58;98850.31;;;11.70;77.53
63535;BME280;55128;50.230;18.944;2022-10-30T20:11:59;98850.06;;;11.75;77.57
63535;BME280;55128;50.230;18.944;2022-10-30T20:16:59;98857.06;;;11.58;78.52
63535;BME280;55128;50.230;18.944;2022-10-30T20:22:00;98860.94;;;11.51;79.25
63535;BME280;55128;50.230;18.944;2022-10-30T20:27:00;98864.69;;;11.47;78.37
63535;BME280;55128;50.230;18.944;2022-10-30T20:32:01;98853.19;;;11.26;79.42
63535;BME280;55128;50.230;18.944;2022-10-30T20:37:02;98850.63;;;11.24;79.59
63535;BME280;55128;50.230;18.944;2022-10-30T20:42:02;98857.00;;;11.20;78.55
63535;BME280;55128;50.230;18.944;2022-10-30T20:47:03;98856.06;;;11.21;77.94
63535;BME280;55128;50.230;18.944;2022-10-30T20:52:04;98855.22;;;11.21;78.25
63535;BME280;55128;50.230;18.944;2022-10-30T20:57:05;98855.56;;;11.13;77.89
63535;BME280;55128;50.230;18.944;2022-10-30T21:02:05;98848.91;;;11.03;78.69
63535;BME280;55128;50.230;18.944;2022-10-30T21:07:06;98851.84;;;10.97;78.37
63535;BME280;55128;50.230;18.944;2022-10-30T21:12:06;98856.91;;;10.82;78.23
63535;BME280;55128;50.230;18.944;2022-10-30T21:17:07;98858.63;;;10.83;77.82
63535;BME280;55128;50.230;18.944;2022-10-30T21:22:08;98848.19;;;10.79;78.20
63535;BME280;55128;50.230;18.944;2022-10-30T21:27:08;98853.84;;;10.71;78.00
63535;BME280;55128;50.230;18.944;2022-10-30T21:32:09;98844.06;;;10.72;77.86
63535;BME280;55128;50.230;18.944;2022-10-30T21:37:09;98844.00;;;10.73;77.52
63535;BME280;55128;50.230;18.944;2022-10-30T21:42:10;98848.75;;;10.66;77.68
63535;BME280;55128;50.230;18.944;2022-10-30T21:47:12;98842.81;;;10.60;77.70
63535;BME280;55128;50.230;18.944;2022-10-30T21:52:13;98842.75;;;10.61;77.41
63535;BME280;55128;50.230;18.944;2022-10-30T21:57:13;98843.75;;;10.59;78.75
63535;BME280;55128;50.230;18.944;2022-10-30T22:02:14;98839.47;;;10.55;78.98
63535;BME280;55128;50.230;18.944;2022-10-30T22:07:18;98836.81;;;10.55;79.41
63535;BME280;55128;50.230;18.944;2022-10-30T22:12:18;98826.50;;;10.69;79.00
63535;BME280;55128;50.230;18.944;2022-10-30T22:17:19;98831.41;;;10.78;78.52
63535;BME280;55128;50.230;18.944;2022-10-30T22:22:20;98820.56;;;10.83;77.91
63535;BME280;55128;50.230;18.944;2022-10-30T22:27:20;98825.75;;;10.86;78.07
63535;BME280;55128;50.230;18.944;2022-10-30T22:32:21;98822.97;;;10.89;77.40
63535;BME280;55128;50.230;18.944;2022-10-30T22:37:22;98823.59;;;10.94;77.47
63535;BME280;55128;50.230;18.944;2022-10-30T22:42:22;98825.63;;;10.89;78.16
63535;BME280;55128;50.230;18.944;2022-10-30T22:47:23;98828.34;;;10.87;77.84
63535;BME280;55128;50.230;18.944;2022-10-30T22:52:23;98828.88;;;10.96;77.57
63535;BME280;55128;50.230;18.944;2022-10-30T22:57:24;98822.91;;;10.91;77.82
63535;BME280;55128;50.230;18.944;2022-10-30T23:02:25;98823.94;;;10.86;77.40
63535;BME280;55128;50.230;18.944;2022-10-30T23:07:25;98826.94;;;10.79;77.67
63535;BME280;55128;50.230;18.944;2022-10-30T23:12:26;98824.34;;;10.77;77.55
63535;BME280;55128;50.230;18.944;2022-10-30T23:17:26;98836.25;;;10.89;77.62
63535;BME280;55128;50.230;18.944;2022-10-30T23:22:27;98834.19;;;10.75;78.33
63535;BME280;55128;50.230;18.944;2022-10-30T23:27:28;98844.69;;;10.78;78.43
63535;BME280;55128;50.230;18.944;2022-10-30T23:32:28;98847.72;;;10.69;78.21
63535;BME280;55128;50.230;18.944;2022-10-30T23:37:29;98846.94;;;10.67;77.54
63535;BME280;55128;50.230;18.944;2022-10-30T23:42:29;98844.31;;;10.45;79.03
63535;BME280;55128;50.230;18.944;2022-10-30T23:47:30;98851.22;;;10.49;78.41
63535;BME280;55128;50.230;18.944;2022-10-30T23:52:30;98853.22;;;10.44;77.77
63535;BME280;55128;50.230;18.944;2022-10-30T23:57:31;98843.91;;;10.34;77.36
